sensor_id;sensor_type;location;lat;lon;timestamp;P1;durP1;ratioP1;P2;durP2;ratioP2
43710;SDS011;29309;42.682;23.372;2023-04-12T00:02:12;12.18;;;7.75;;
43710;SDS011;29309;42.682;23.372;2023-04-12T00:04:38;24.58;;;8.23;;
43710;SDS011;29309;42.682;23.372;2023-04-12T00:07:04;11.65;;;7.65;;
43710;SDS011;29309;42.682;23.372;2023-04-12T00:09:30;13.55;;;7.22;;
43710;SDS011;29309;42.682;23.372;2023-04-12T00:11:57;13.68;;;8.35;;
43710;SDS011;29309;42.682;23.372;2023-04-12T00:14:23;13.25;;;7.35;;
43710;SDS011;29309;42.682;23.372;2023-04-12T00:16:49;12.73;;;7.90;;
43710;SDS011;29309;42.682;23.372;2023-04-12T00:19:15;12.38;;;7.05;;
43710;SDS011;29309;42.682;23.372;2023-04-12T00:21:41;13.23;;;7.43;;
43710;SDS011;29309;42.682;23.372;2023-04-12T00:24:07;11.48;;;7.70;;
43710;SDS011;29309;42.682;23.372;2023-04-12T00:26:33;12.75;;;7.40;;
43710;SDS011;29309;42.682;23.372;2023-04-12T00:28:58;14.50;;;7.53;;
43710;SDS011;29309;42.682;23.372;2023-04-12T00:31:24;13.23;;;8.50;;
43710;SDS011;29309;42.682;23.372;2023-04-12T00:33:50;13.50;;;7.85;;
43710;SDS011;29309;42.682;23.372;2023-04-12T00:36:15;13.68;;;7.88;;
43710;SDS011;29309;42.682;23.372;2023-04-12T00:38:41;11.98;;;8.25;;
43710;SDS011;29309;42.682;23.372;2023-04-12T00:41:06;15.70;;;7.97;;
43710;SDS011;29309;42.682;23.372;2023-04-12T00:43:32;12.20;;;7.53;;
43710;SDS011;29309;42.682;23.372;2023-04-12T00:45:58;13.60;;;8.60;;
43710;SDS011;29309;42.682;23.372;2023-04-12T00:48:24;14.05;;;8.18;;
43710;SDS011;29309;42.682;23.372;2023-04-12T00:50:51;14.75;;;7.85;;
43710;SDS011;29309;42.682;23.372;2023-04-12T00:53:19;14.80;;;7.55;;
43710;SDS011;29309;42.682;23.372;2023-04-12T00:55:46;17.33;;;8.57;;
43710;SDS011;29309;42.682;23.372;2023-04-12T00:58:14;16.27;;;9.25;;
43710;SDS011;29309;42.682;23.372;2023-04-12T01:00:40;12.38;;;8.35;;
43710;SDS011;29309;42.682;23.372;2023-04-12T01:03:06;15.10;;;8.10;;
43710;SDS011;29309;42.682;23.372;2023-04-12T01:05:46;13.73;;;7.78;;
43710;SDS011;29309;42.682;23.372;2023-04-12T01:08:24;12.85;;;8.45;;
43710;SDS011;29309;42.682;23.372;2023-04-12T01:11:17;14.50;;;7.97;;
43710;SDS011;29309;42.682;23.372;2023-04-12T01:13:54;14.80;;;8.82;;
43710;SDS011;29309;42.682;23.372;2023-04-12T01:16:35;13.60;;;8.23;;
43710;SDS011;29309;42.682;23.372;2023-04-12T01:19:18;12.88;;;8.35;;
43710;SDS011;29309;42.682;23.372;2023-04-12T01:22:23;15.40;;;8.55;;
43710;SDS011;29309;42.682;23.372;2023-04-12T01:25:07;13.50;;;7.78;;
43710;SDS011;29309;42.682;23.372;2023-04-12T01:27:41;13.13;;;8.43;;
43710;SDS011;29309;42.682;23.372;2023-04-12T01:30:11;15.10;;;8.57;;
43710;SDS011;29309;42.682;23.372;2023-04-12T01:32:39;15.02;;;8.50;;
43710;SDS011;29309;42.682;23.372;2023-04-12T01:35:09;16.35;;;8.77;;
43710;SDS011;29309;42.682;23.372;2023-04-12T01:37:35;14.35;;;8.48;;
43710;SDS011;29309;42.682;23.372;2023-04-12T01:40:01;14.68;;;8.60;;
43710;SDS011;29309;42.682;23.372;2023-04-12T01:42:30;14.70;;;8.63;;
43710;SDS011;29309;42.682;23.372;2023-04-12T01:44:56;13.02;;;8.70;;
43710;SDS011;29309;42.682;23.372;2023-04-12T01:47:22;15.07;;;9.07;;
43710;SDS011;29309;42.682;23.372;2023-04-12T01:49:55;13.27;;;8.88;;
43710;SDS011;29309;42.682;23.372;2023-04-12T01:52:52;14.93;;;8.85;;
43710;SDS011;29309;42.682;23.372;2023-04-12T01:55:25;17.20;;;9.38;;
43710;SDS011;29309;42.682;23.372;2023-04-12T01:57:54;16.02;;;9.50;;
43710;SDS011;29309;42.682;23.372;2023-04-12T02:00:21;16.58;;;9.27;;
43710;SDS011;29309;42.682;23.372;2023-04-12T02:02:47;15.75;;;9.45;;
43710;SDS011;29309;42.682;23.372;2023-04-12T02:05:12;15.85;;;9.05;;
43710;SDS011;29309;42.682;23.372;2023-04-12T02:07:39;14.55;;;9.00;;
43710;SDS011;29309;42.682;23.372;2023-04-12T02:10:06;15.05;;;9.43;;
43710;SDS011;29309;42.682;23.372;2023-04-12T02:12:32;16.10;;;9.73;;
43710;SDS011;29309;42.682;23.372;2023-04-12T02:14:57;15.27;;;9.30;;
43710;SDS011;29309;42.682;23.372;2023-04-12T02:17:24;16.85;;;9.77;;
43710;SDS011;29309;42.682;23.372;2023-04-12T02:19:49;15.85;;;9.50;;
43710;SDS011;29309;42.682;23.372;2023-04-12T02:22:15;14.50;;;9.50;;
43710;SDS011;29309;42.682;23.372;2023-04-12T02:24:40;14.43;;;9.20;;
43710;SDS011;29309;42.682;23.372;2023-04-12T02:27:06;14.75;;;8.95;;
43710;SDS011;29309;42.682;23.372;2023-04-12T02:29:31;20.65;;;9.30;;
43710;SDS011;29309;42.682;23.372;2023-04-12T02:31:56;13.35;;;9.00;;
43710;SDS011;29309;42.682;23.372;2023-04-12T02:34:22;16.10;;;9.30;;
43710;SDS011;29309;42.682;23.372;2023-04-12T02:36:48;15.40;;;9.75;;
43710;SDS011;29309;42.682;23.372;2023-04-12T02:39:13;18.67;;;9.27;;
43710;SDS011;29309;42.682;23.372;2023-04-12T02:41:42;17.33;;;10.18;;
43710;SDS011;29309;42.682;23.372;2023-04-12T02:44:08;19.38;;;9.00;;
43710;SDS011;29309;42.682;23.372;2023-04-12T02:46:34;15.40;;;9.70;;
43710;SDS011;29309;42.682;23.372;2023-04-12T02:48:59;17.75;;;9.48;;
43710;SDS011;29309;42.682;23.372;2023-04-12T02:51:24;22.10;;;10.35;;
43710;SDS011;29309;42.682;23.372;2023-04-12T02:53:50;17.75;;;10.35;;
43710;SDS011;29309;42.682;23.372;2023-04-12T02:56:16;15.70;;;9.98;;
43710;SDS011;29309;42.682;23.372;2023-04-12T02:58:43;17.52;;;9.48;;
43710;SDS011;29309;42.682;23.372;2023-04-12T03:01:08;18.05;;;9.75;;
43710;SDS011;29309;42.682;23.372;2023-04-12T03:03:37;16.60;;;9.68;;
43710;SDS011;29309;42.682;23.372;2023-04-12T03:06:03;15.70;;;9.50;;
43710;SDS011;29309;42.682;23.372;2023-04-12T03:08:29;16.70;;;9.63;;
43710;SDS011;29309;42.682;23.372;2023-04-12T03:10:55;16.27;;;8.95;;
43710;SDS011;29309;42.682;23.372;2023-04-12T03:13:21;18.00;;;10.32;;
43710;SDS011;29309;42.682;23.372;2023-04-12T03:15:46;16.48;;;9.35;;
43710;SDS011;29309;42.682;23.372;2023-04-12T03:18:13;17.50;;;10.88;;
43710;SDS011;29309;42.682;23.372;2023-04-12T03:20:39;17.38;;;9.95;;
43710;SDS011;29309;42.682;23.372;2023-04-12T03:23:08;17.90;;;10.60;;
43710;SDS011;29309;42.682;23.372;2023-04-12T03:25:33;19.40;;;10.77;;
43710;SDS011;29309;42.682;23.372;2023-04-12T03:28:01;22.45;;;11.25;;
43710;SDS011;29309;42.682;23.372;2023-04-12T03:30:26;20.88;;;10.75;;
43710;SDS011;29309;42.682;23.372;2023-04-12T03:32:52;21.17;;;12.52;;
43710;SDS011;29309;42.682;23.372;2023-04-12T03:35:17;19.30;;;11.05;;
43710;SDS011;29309;42.682;23.372;2023-04-12T03:37:43;18.33;;;11.43;;
43710;SDS011;29309;42.682;23.372;2023-04-12T03:40:08;21.38;;;11.90;;
43710;SDS011;29309;42.682;23.372;2023-04-12T03:42:34;21.40;;;11.85;;
43710;SDS011;29309;42.682;23.372;2023-04-12T03:45:00;18.35;;;11.38;;
43710;SDS011;29309;42.682;23.372;2023-04-12T03:47:26;18.67;;;11.38;;
43710;SDS011;29309;42.682;23.372;2023-04-12T03:49:53;21.85;;;11.88;;
43710;SDS011;29309;42.682;23.372;2023-04-12T03:52:19;20.42;;;11.75;;
43710;SDS011;29309;42.682;23.372;2023-04-12T03:54:45;19.40;;;12.48;;
43710;SDS011;29309;42.682;23.372;2023-04-12T03:57:10;20.60;;;11.38;;
43710;SDS011;29309;42.682;23.372;2023-04-12T03:59:36;22.67;;;12.10;;
43710;SDS011;29309;42.682;23.372;2023-04-12T04:02:01;24.58;;;13.07;;
43710;SDS011;29309;42.682;23.372;2023-04-12T04:04:27;23.67;;;12.48;;
43710;SDS011;29309;42.682;23.372;2023-04-12T04:06:53;20.38;;;12.75;;
43710;SDS011;29309;42.682;23.372;2023-04-12T04:09:18;23.48;;;12.20;;
43710;SDS011;29309;42.682;23.372;2023-04-12T04:11:44;21.55;;;11.73;;
43710;SDS011;29309;42.682;23.372;2023-04-12T04:14:11;22.90;;;11.45;;
43710;SDS011;29309;42.682;23.372;2023-04-12T04:16:36;24.10;;;13.80;;
43710;SDS011;29309;42.682;23.372;2023-04-12T04:19:02;21.63;;;13.38;;
43710;SDS011;29309;42.682;23.372;2023-04-12T04:21:27;22.08;;;12.80;;
43710;SDS011;29309;42.682;23.372;2023-04-12T04:23:54;20.85;;;12.73;;
43710;SDS011;29309;42.682;23.372;2023-04-12T04:26:22;21.00;;;11.77;;
43710;SDS011;29309;42.682;23.372;2023-04-12T04:28:56;23.88;;;12.73;;
43710;SDS011;29309;42.682;23.372;2023-04-12T04:31:26;22.35;;;11.68;;
43710;SDS011;29309;42.682;23.372;2023-04-12T04:33:58;19.25;;;11.25;;
43710;SDS011;29309;42.682;23.372;2023-04-12T04:36:23;19.13;;;11.73;;
43710;SDS011;29309;42.682;23.372;2023-04-12T04:38:50;21.65;;;11.77;;
43710;SDS011;29309;42.682;23.372;2023-04-12T04:41:16;19.55;;;12.40;;
43710;SDS011;29309;42.682;23.372;2023-04-12T04:43:41;26.23;;;13.15;;
43710;SDS011;29309;42.682;23.372;2023-04-12T04:46:06;25.38;;;12.70;;
43710;SDS011;29309;42.682;23.372;2023-04-12T04:48:32;22.33;;;13.38;;
43710;SDS011;29309;42.682;23.372;2023-04-12T04:50:59;22.15;;;13.07;;
43710;SDS011;29309;42.682;23.372;2023-04-12T04:53:24;21.75;;;12.70;;
43710;SDS011;29309;42.682;23.372;2023-04-12T04:55:56;20.23;;;11.98;;
43710;SDS011;29309;42.682;23.372;2023-04-12T04:58:22;21.98;;;11.68;;
43710;SDS011;29309;42.682;23.372;2023-04-12T05:00:47;20.85;;;11.82;;
43710;SDS011;29309;42.682;23.372;2023-04-12T05:03:13;21.67;;;11.07;;
43710;SDS011;29309;42.682;23.372;2023-04-12T05:05:38;24.67;;;11.65;;
43710;SDS011;29309;42.682;23.372;2023-04-12T05:08:04;19.40;;;11.40;;
43710;SDS011;29309;42.682;23.372;2023-04-12T05:10:30;22.75;;;11.80;;
43710;SDS011;29309;42.682;23.372;2023-04-12T05:12:55;17.95;;;10.38;;
43710;SDS011;29309;42.682;23.372;2023-04-12T05:15:20;25.30;;;10.68;;
43710;SDS011;29309;42.682;23.372;2023-04-12T05:17:46;15.82;;;10.27;;
43710;SDS011;29309;42.682;23.372;2023-04-12T05:20:11;16.10;;;9.65;;
43710;SDS011;29309;42.682;23.372;2023-04-12T05:22:37;17.58;;;9.02;;
43710;SDS011;29309;42.682;23.372;2023-04-12T05:25:03;14.98;;;9.30;;
43710;SDS011;29309;42.682;23.372;2023-04-12T05:27:29;18.33;;;8.70;;
43710;SDS011;29309;42.682;23.372;2023-04-12T05:29:55;16.88;;;8.70;;
43710;SDS011;29309;42.682;23.372;2023-04-12T05:32:21;15.63;;;8.07;;
43710;SDS011;29309;42.682;23.372;2023-04-12T05:34:48;13.05;;;7.68;;
43710;SDS011;29309;42.682;23.372;2023-04-12T05:37:14;24.70;;;8.25;;
43710;SDS011;29309;42.682;23.372;2023-04-12T05:39:39;12.40;;;7.63;;
43710;SDS011;29309;42.682;23.372;2023-04-12T05:42:05;11.65;;;6.95;;
43710;SDS011;29309;42.682;23.372;2023-04-12T05:44:30;12.93;;;7.53;;
43710;SDS011;29309;42.682;23.372;2023-04-12T05:46:59;14.68;;;7.32;;
43710;SDS011;29309;42.682;23.372;2023-04-12T05:49:27;12.60;;;6.93;;
43710;SDS011;29309;42.682;23.372;2023-04-12T05:51:54;11.48;;;7.05;;
43710;SDS011;29309;42.682;23.372;2023-04-12T05:54:19;14.32;;;6.53;;
43710;SDS011;29309;42.682;23.372;2023-04-12T05:56:45;12.85;;;6.90;;
43710;SDS011;29309;42.682;23.372;2023-04-12T05:59:10;15.43;;;7.38;;
43710;SDS011;29309;42.682;23.372;2023-04-12T06:01:36;12.73;;;7.57;;
43710;SDS011;29309;42.682;23.372;2023-04-12T06:04:03;18.23;;;7.60;;
43710;SDS011;29309;42.682;23.372;2023-04-12T06:06:31;12.30;;;6.25;;
43710;SDS011;29309;42.682;23.372;2023-04-12T06:08:56;16.15;;;7.07;;
43710;SDS011;29309;42.682;23.372;2023-04-12T06:11:24;12.30;;;5.97;;
43710;SDS011;29309;42.682;23.372;2023-04-12T06:13:50;15.23;;;5.68;;
43710;SDS011;29309;42.682;23.372;2023-04-12T06:16:16;16.25;;;6.43;;
43710;SDS011;29309;42.682;23.372;2023-04-12T06:18:41;15.95;;;6.30;;
43710;SDS011;29309;42.682;23.372;2023-04-12T06:21:07;17.13;;;6.45;;
43710;SDS011;29309;42.682;23.372;2023-04-12T06:23:32;13.93;;;6.10;;
43710;SDS011;29309;42.682;23.372;2023-04-12T06:25:58;13.38;;;6.38;;
43710;SDS011;29309;42.682;23.372;2023-04-12T06:28:23;14.73;;;6.72;;
43710;SDS011;29309;42.682;23.372;2023-04-12T06:30:48;12.85;;;6.30;;
43710;SDS011;29309;42.682;23.372;2023-04-12T06:33:14;16.15;;;7.15;;
43710;SDS011;29309;42.682;23.372;2023-04-12T06:35:39;16.92;;;6.25;;
43710;SDS011;29309;42.682;23.372;2023-04-12T06:38:05;16.63;;;6.22;;
43710;SDS011;29309;42.682;23.372;2023-04-12T06:40:31;16.45;;;6.88;;
43710;SDS011;29309;42.682;23.372;2023-04-12T06:42:56;18.98;;;7.70;;
43710;SDS011;29309;42.682;23.372;2023-04-12T06:45:22;13.73;;;5.68;;
43710;SDS011;29309;42.682;23.372;2023-04-12T06:47:47;14.45;;;6.00;;
43710;SDS011;29309;42.682;23.372;2023-04-12T06:50:12;10.50;;;4.85;;
43710;SDS011;29309;42.682;23.372;2023-04-12T06:52:38;9.15;;;4.53;;
43710;SDS011;29309;42.682;23.372;2023-04-12T06:55:04;8.90;;;3.92;;
43710;SDS011;29309;42.682;23.372;2023-04-12T06:57:31;6.93;;;3.95;;
43710;SDS011;29309;42.682;23.372;2023-04-12T06:59:56;9.38;;;4.28;;
43710;SDS011;29309;42.682;23.372;2023-04-12T07:02:22;7.47;;;4.20;;
43710;SDS011;29309;42.682;23.372;2023-04-12T07:04:51;9.93;;;3.97;;
43710;SDS011;29309;42.682;23.372;2023-04-12T07:07:18;9.30;;;3.38;;
43710;SDS011;29309;42.682;23.372;2023-04-12T07:09:44;7.10;;;2.90;;
43710;SDS011;29309;42.682;23.372;2023-04-12T07:12:11;8.07;;;3.33;;
43710;SDS011;29309;42.682;23.372;2023-04-12T07:14:38;9.85;;;3.47;;
43710;SDS011;29309;42.682;23.372;2023-04-12T07:17:23;7.25;;;3.88;;
43710;SDS011;29309;42.682;23.372;2023-04-12T07:19:52;7.07;;;3.28;;
43710;SDS011;29309;42.682;23.372;2023-04-12T07:22:18;6.93;;;3.38;;
43710;SDS011;29309;42.682;23.372;2023-04-12T07:24:43;6.93;;;3.15;;
43710;SDS011;29309;42.682;23.372;2023-04-12T07:27:09;7.22;;;3.55;;
43710;SDS011;29309;42.682;23.372;2023-04-12T07:29:35;4.45;;;3.30;;
43710;SDS011;29309;42.682;23.372;2023-04-12T07:32:01;9.23;;;3.92;;
43710;SDS011;29309;42.682;23.372;2023-04-12T07:34:27;5.78;;;2.97;;
43710;SDS011;29309;42.682;23.372;2023-04-12T07:36:53;4.75;;;2.88;;
43710;SDS011;29309;42.682;23.372;2023-04-12T07:39:18;6.38;;;2.80;;
43710;SDS011;29309;42.682;23.372;2023-04-12T07:41:43;4.35;;;2.92;;
43710;SDS011;29309;42.682;23.372;2023-04-12T07:44:10;4.63;;;3.05;;
43710;SDS011;29309;42.682;23.372;2023-04-12T07:46:37;4.30;;;2.85;;
43710;SDS011;29309;42.682;23.372;2023-04-12T07:49:03;5.63;;;3.10;;
43710;SDS011;29309;42.682;23.372;2023-04-12T07:51:29;8.23;;;3.35;;
43710;SDS011;29309;42.682;23.372;2023-04-12T07:53:55;7.63;;;3.20;;
43710;SDS011;29309;42.682;23.372;2023-04-12T07:56:20;3.45;;;2.70;;
43710;SDS011;29309;42.682;23.372;2023-04-12T07:58:46;8.85;;;3.53;;
43710;SDS011;29309;42.682;23.372;2023-04-12T08:01:13;8.90;;;2.30;;
43710;SDS011;29309;42.682;23.372;2023-04-12T08:03:40;10.48;;;2.72;;
43710;SDS011;29309;42.682;23.372;2023-04-12T08:06:06;5.25;;;2.25;;
43710;SDS011;29309;42.682;23.372;2023-04-12T08:08:32;5.47;;;2.17;;
43710;SDS011;29309;42.682;23.372;2023-04-12T08:10:57;4.97;;;2.38;;
43710;SDS011;29309;42.682;23.372;2023-04-12T08:13:24;2.42;;;2.03;;
43710;SDS011;29309;42.682;23.372;2023-04-12T08:15:50;7.40;;;1.85;;
43710;SDS011;29309;42.682;23.372;2023-04-12T08:18:16;3.85;;;2.35;;
43710;SDS011;29309;42.682;23.372;2023-04-12T08:20:41;4.95;;;2.10;;
43710;SDS011;29309;42.682;23.372;2023-04-12T08:23:10;5.32;;;1.67;;
43710;SDS011;29309;42.682;23.372;2023-04-12T08:25:36;2.95;;;1.75;;
43710;SDS011;29309;42.682;23.372;2023-04-12T08:28:02;2.17;;;1.20;;
43710;SDS011;29309;42.682;23.372;2023-04-12T08:30:28;7.03;;;1.77;;
43710;SDS011;29309;42.682;23.372;2023-04-12T08:32:53;19.98;;;2.08;;
43710;SDS011;29309;42.682;23.372;2023-04-12T08:35:19;3.15;;;1.75;;
43710;SDS011;29309;42.682;23.372;2023-04-12T08:37:46;3.67;;;1.55;;
43710;SDS011;29309;42.682;23.372;2023-04-12T08:40:11;4.35;;;1.50;;
43710;SDS011;29309;42.682;23.372;2023-04-12T08:42:37;7.35;;;2.03;;
43710;SDS011;29309;42.682;23.372;2023-04-12T08:45:04;3.95;;;1.13;;
43710;SDS011;29309;42.682;23.372;2023-04-12T08:47:31;2.20;;;1.33;;
43710;SDS011;29309;42.682;23.372;2023-04-12T08:49:59;4.32;;;1.40;;
43710;SDS011;29309;42.682;23.372;2023-04-12T08:52:26;3.85;;;1.85;;
43710;SDS011;29309;42.682;23.372;2023-04-12T08:54:52;5.47;;;1.55;;
43710;SDS011;29309;42.682;23.372;2023-04-12T08:57:19;3.17;;;1.38;;
43710;SDS011;29309;42.682;23.372;2023-04-12T08:59:45;2.58;;;1.13;;
43710;SDS011;29309;42.682;23.372;2023-04-12T09:02:14;6.43;;;1.30;;
43710;SDS011;29309;42.682;23.372;2023-04-12T09:04:46;5.43;;;1.10;;
43710;SDS011;29309;42.682;23.372;2023-04-12T09:07:12;6.20;;;2.35;;
43710;SDS011;29309;42.682;23.372;2023-04-12T09:12:06;5.45;;;2.03;;
43710;SDS011;29309;42.682;23.372;2023-04-12T09:14:33;3.00;;;1.75;;
43710;SDS011;29309;42.682;23.372;2023-04-12T09:16:59;5.05;;;2.42;;
43710;SDS011;29309;42.682;23.372;2023-04-12T09:19:43;3.50;;;1.38;;
43710;SDS011;29309;42.682;23.372;2023-04-12T09:22:08;5.15;;;1.52;;
43710;SDS011;29309;42.682;23.372;2023-04-12T09:24:44;3.00;;;1.27;;
43710;SDS011;29309;42.682;23.372;2023-04-12T09:27:11;3.03;;;1.52;;
43710;SDS011;29309;42.682;23.372;2023-04-12T09:29:36;1.42;;;0.88;;
43710;SDS011;29309;42.682;23.372;2023-04-12T09:32:03;3.05;;;1.30;;
43710;SDS011;29309;42.682;23.372;2023-04-12T09:34:32;1.98;;;0.98;;
43710;SDS011;29309;42.682;23.372;2023-04-12T09:37:03;2.33;;;1.05;;
43710;SDS011;29309;42.682;23.372;2023-04-12T09:39:40;4.95;;;2.30;;
43710;SDS011;29309;42.682;23.372;2023-04-12T09:42:07;6.30;;;1.92;;
43710;SDS011;29309;42.682;23.372;2023-04-12T09:44:34;4.43;;;1.85;;
43710;SDS011;29309;42.682;23.372;2023-04-12T09:47:00;3.42;;;1.67;;
43710;SDS011;29309;42.682;23.372;2023-04-12T09:49:41;7.47;;;1.52;;
43710;SDS011;29309;42.682;23.372;2023-04-12T09:52:09;3.70;;;0.70;;
43710;SDS011;29309;42.682;23.372;2023-04-12T09:54:37;4.57;;;1.10;;
43710;SDS011;29309;42.682;23.372;2023-04-12T09:57:06;2.00;;;1.20;;
43710;SDS011;29309;42.682;23.372;2023-04-12T09:59:34;4.40;;;1.50;;
43710;SDS011;29309;42.682;23.372;2023-04-12T10:02:03;2.80;;;1.40;;
43710;SDS011;29309;42.682;23.372;2023-04-12T10:04:35;1.58;;;1.00;;
43710;SDS011;29309;42.682;23.372;2023-04-12T10:07:03;3.03;;;1.08;;
43710;SDS011;29309;42.682;23.372;2023-04-12T10:09:29;1.52;;;0.93;;
43710;SDS011;29309;42.682;23.372;2023-04-12T10:11:55;2.17;;;0.95;;
43710;SDS011;29309;42.682;23.372;2023-04-12T10:14:23;7.75;;;1.00;;
43710;SDS011;29309;42.682;23.372;2023-04-12T10:16:53;2.13;;;0.82;;
43710;SDS011;29309;42.682;23.372;2023-04-12T10:19:26;1.50;;;0.80;;
43710;SDS011;29309;42.682;23.372;2023-04-12T10:21:58;4.85;;;0.70;;
43710;SDS011;29309;42.682;23.372;2023-04-12T10:24:24;4.85;;;0.90;;
43710;SDS011;29309;42.682;23.372;2023-04-12T10:26:52;11.75;;;1.90;;
43710;SDS011;29309;42.682;23.372;2023-04-12T10:31:49;4.10;;;0.88;;
43710;SDS011;29309;42.682;23.372;2023-04-12T10:34:15;2.22;;;0.77;;
43710;SDS011;29309;42.682;23.372;2023-04-12T10:36:59;4.93;;;0.82;;
43710;SDS011;29309;42.682;23.372;2023-04-12T10:39:41;3.03;;;0.60;;
43710;SDS011;29309;42.682;23.372;2023-04-12T10:44:39;13.27;;;1.20;;
43710;SDS011;29309;42.682;23.372;2023-04-12T10:47:05;4.82;;;1.08;;
43710;SDS011;29309;42.682;23.372;2023-04-12T10:49:30;3.08;;;0.70;;
43710;SDS011;29309;42.682;23.372;2023-04-12T10:56:53;9.20;;;1.00;;
43710;SDS011;29309;42.682;23.372;2023-04-12T10:59:19;1.30;;;0.60;;
43710;SDS011;29309;42.682;23.372;2023-04-12T11:04:28;5.28;;;0.82;;
43710;SDS011;29309;42.682;23.372;2023-04-12T11:09:24;3.67;;;0.98;;
43710;SDS011;29309;42.682;23.372;2023-04-12T11:14:33;1.95;;;0.90;;
43710;SDS011;29309;42.682;23.372;2023-04-12T11:22:11;3.13;;;1.20;;
43710;SDS011;29309;42.682;23.372;2023-04-12T11:24:47;2.67;;;0.95;;
43710;SDS011;29309;42.682;23.372;2023-04-12T11:27:20;1.95;;;0.88;;
43710;SDS011;29309;42.682;23.372;2023-04-12T11:29:54;2.58;;;0.85;;
43710;SDS011;29309;42.682;23.372;2023-04-12T11:32:21;2.97;;;0.90;;
43710;SDS011;29309;42.682;23.372;2023-04-12T11:34:48;4.63;;;1.45;;
43710;SDS011;29309;42.682;23.372;2023-04-12T11:37:16;3.28;;;0.77;;
43710;SDS011;29309;42.682;23.372;2023-04-12T11:39:43;1.85;;;0.80;;
43710;SDS011;29309;42.682;23.372;2023-04-12T11:42:13;3.38;;;0.75;;
43710;SDS011;29309;42.682;23.372;2023-04-12T11:44:41;3.30;;;0.77;;
43710;SDS011;29309;42.682;23.372;2023-04-12T11:47:14;7.50;;;1.08;;
43710;SDS011;29309;42.682;23.372;2023-04-12T11:49:59;4.88;;;0.80;;
43710;SDS011;29309;42.682;23.372;2023-04-12T11:52:29;6.53;;;1.85;;
43710;SDS011;29309;42.682;23.372;2023-04-12T11:54:58;3.50;;;1.40;;
43710;SDS011;29309;42.682;23.372;2023-04-12T11:57:25;10.85;;;1.10;;
43710;SDS011;29309;42.682;23.372;2023-04-12T11:59:55;8.65;;;1.40;;
43710;SDS011;29309;42.682;23.372;2023-04-12T12:02:21;8.27;;;3.03;;
43710;SDS011;29309;42.682;23.372;2023-04-12T12:04:47;3.03;;;0.90;;
43710;SDS011;29309;42.682;23.372;2023-04-12T12:07:14;7.95;;;1.45;;
43710;SDS011;29309;42.682;23.372;2023-04-12T12:09:41;1.55;;;0.70;;
43710;SDS011;29309;42.682;23.372;2023-04-12T12:12:11;7.95;;;1.10;;
43710;SDS011;29309;42.682;23.372;2023-04-12T12:14:37;5.25;;;0.90;;
43710;SDS011;29309;42.682;23.372;2023-04-12T12:17:10;6.63;;;1.13;;
43710;SDS011;29309;42.682;23.372;2023-04-12T12:19:41;7.25;;;1.20;;
43710;SDS011;29309;42.682;23.372;2023-04-12T12:22:15;4.03;;;1.55;;
43710;SDS011;29309;42.682;23.372;2023-04-12T12:27:35;2.58;;;1.20;;
43710;SDS011;29309;42.682;23.372;2023-04-12T12:30:02;2.72;;;1.05;;
43710;SDS011;29309;42.682;23.372;2023-04-12T12:32:32;2.10;;;0.95;;
43710;SDS011;29309;42.682;23.372;2023-04-12T12:34:58;2.60;;;0.70;;
43710;SDS011;29309;42.682;23.372;2023-04-12T12:37:25;2.72;;;1.42;;
43710;SDS011;29309;42.682;23.372;2023-04-12T12:40:01;2.88;;;1.00;;
43710;SDS011;29309;42.682;23.372;2023-04-12T12:42:53;2.78;;;0.85;;
43710;SDS011;29309;42.682;23.372;2023-04-12T12:45:23;5.32;;;1.10;;
43710;SDS011;29309;42.682;23.372;2023-04-12T12:47:51;4.65;;;1.20;;
43710;SDS011;29309;42.682;23.372;2023-04-12T12:50:18;5.18;;;0.98;;
43710;SDS011;29309;42.682;23.372;2023-04-12T12:52:47;6.40;;;0.82;;
43710;SDS011;29309;42.682;23.372;2023-04-12T12:55:13;1.08;;;0.68;;
43710;SDS011;29309;42.682;23.372;2023-04-12T12:57:40;1.77;;;0.80;;
43710;SDS011;29309;42.682;23.372;2023-04-12T13:00:07;1.55;;;0.90;;
43710;SDS011;29309;42.682;23.372;2023-04-12T13:02:34;1.40;;;0.50;;
43710;SDS011;29309;42.682;23.372;2023-04-12T13:05:01;4.32;;;1.10;;
43710;SDS011;29309;42.682;23.372;2023-04-12T13:07:27;2.30;;;0.80;;
43710;SDS011;29309;42.682;23.372;2023-04-12T13:09:53;1.63;;;0.90;;
43710;SDS011;29309;42.682;23.372;2023-04-12T13:12:18;4.38;;;0.90;;
43710;SDS011;29309;42.682;23.372;2023-04-12T13:14:46;1.35;;;0.50;;
43710;SDS011;29309;42.682;23.372;2023-04-12T13:17:11;2.33;;;0.90;;
43710;SDS011;29309;42.682;23.372;2023-04-12T13:19:37;1.67;;;0.75;;
43710;SDS011;29309;42.682;23.372;2023-04-12T13:22:02;3.50;;;1.10;;
43710;SDS011;29309;42.682;23.372;2023-04-12T13:24:28;1.83;;;1.10;;
43710;SDS011;29309;42.682;23.372;2023-04-12T13:26:53;3.53;;;0.82;;
43710;SDS011;29309;42.682;23.372;2023-04-12T13:29:18;4.15;;;1.20;;
43710;SDS011;29309;42.682;23.372;2023-04-12T13:31:44;5.30;;;1.13;;
43710;SDS011;29309;42.682;23.372;2023-04-12T13:34:09;5.88;;;1.05;;
43710;SDS011;29309;42.682;23.372;2023-04-12T13:36:35;4.97;;;0.77;;
43710;SDS011;29309;42.682;23.372;2023-04-12T13:39:00;1.63;;;0.82;;
43710;SDS011;29309;42.682;23.372;2023-04-12T13:41:26;2.20;;;0.65;;
43710;SDS011;29309;42.682;23.372;2023-04-12T13:43:51;1.65;;;0.65;;
43710;SDS011;29309;42.682;23.372;2023-04-12T13:46:17;1.15;;;0.68;;
43710;SDS011;29309;42.682;23.372;2023-04-12T13:48:42;2.05;;;0.80;;
43710;SDS011;29309;42.682;23.372;2023-04-12T13:51:08;3.58;;;0.70;;
43710;SDS011;29309;42.682;23.372;2023-04-12T13:53:34;3.83;;;0.90;;
43710;SDS011;29309;42.682;23.372;2023-04-12T13:56:00;3.15;;;0.90;;
43710;SDS011;29309;42.682;23.372;2023-04-12T13:58:25;3.25;;;0.80;;
43710;SDS011;29309;42.682;23.372;2023-04-12T14:00:51;2.67;;;0.80;;
43710;SDS011;29309;42.682;23.372;2023-04-12T14:03:18;2.67;;;0.90;;
43710;SDS011;29309;42.682;23.372;2023-04-12T14:05:43;4.68;;;1.08;;
43710;SDS011;29309;42.682;23.372;2023-04-12T14:08:09;5.15;;;0.85;;
43710;SDS011;29309;42.682;23.372;2023-04-12T14:10:34;3.42;;;0.70;;
43710;SDS011;29309;42.682;23.372;2023-04-12T14:12:59;7.97;;;2.42;;
43710;SDS011;29309;42.682;23.372;2023-04-12T14:15:25;3.50;;;0.98;;
43710;SDS011;29309;42.682;23.372;2023-04-12T14:17:50;1.75;;;0.70;;
43710;SDS011;29309;42.682;23.372;2023-04-12T14:20:16;1.02;;;0.60;;
43710;SDS011;29309;42.682;23.372;2023-04-12T14:22:41;9.27;;;1.48;;
43710;SDS011;29309;42.682;23.372;2023-04-12T14:25:07;2.28;;;0.60;;
43710;SDS011;29309;42.682;23.372;2023-04-12T14:27:33;5.22;;;0.60;;
43710;SDS011;29309;42.682;23.372;2023-04-12T14:29:59;5.40;;;1.83;;
43710;SDS011;29309;42.682;23.372;2023-04-12T14:32:25;5.80;;;0.90;;
43710;SDS011;29309;42.682;23.372;2023-04-12T14:34:51;5.70;;;1.20;;
43710;SDS011;29309;42.682;23.372;2023-04-12T14:37:16;5.15;;;0.82;;
43710;SDS011;29309;42.682;23.372;2023-04-12T14:39:41;1.70;;;1.40;;
43710;SDS011;29309;42.682;23.372;2023-04-12T14:42:08;7.03;;;0.88;;
43710;SDS011;29309;42.682;23.372;2023-04-12T14:44:33;2.55;;;0.80;;
43710;SDS011;29309;42.682;23.372;2023-04-12T14:46:59;2.10;;;0.80;;
43710;SDS011;29309;42.682;23.372;2023-04-12T14:49:24;3.75;;;0.90;;
43710;SDS011;29309;42.682;23.372;2023-04-12T14:51:50;4.72;;;0.73;;
43710;SDS011;29309;42.682;23.372;2023-04-12T14:54:15;2.20;;;0.88;;
43710;SDS011;29309;42.682;23.372;2023-04-12T14:56:41;2.53;;;0.90;;